sensor_id;sensor_type;location;lat;lon;timestamp;temperature;humidity
55016;DHT22;40919;43.236;21.590;2022-07-23T00:01:34;589.20;2073.60
55016;DHT22;40919;43.236;21.590;2022-07-23T00:04:00;589.20;2073.60
55016;DHT22;40919;43.236;21.590;2022-07-23T00:06:26;589.00;2073.60
55016;DHT22;40919;43.236;21.590;2022-07-23T00:08:52;589.10;2073.60
55016;DHT22;40919;43.236;21.590;2022-07-23T00:11:18;589.10;2073.60
55016;DHT22;40919;43.236;21.590;2022-07-23T00:13:44;589.10;2073.60
55016;DHT22;40919;43.236;21.590;2022-07-23T00:16:10;589.00;2099.20
55016;DHT22;40919;43.236;21.590;2022-07-23T00:18:36;564.10;2124.80
55016;DHT22;40919;43.236;21.590;2022-07-23T00:21:02;588.80;2099.20
55016;DHT22;40919;43.236;21.590;2022-07-23T00:23:28;589.00;2099.20
55016;DHT22;40919;43.236;21.590;2022-07-23T00:25:55;589.00;2099.20
55016;DHT22;40919;43.236;21.590;2022-07-23T00:28:20;588.90;2099.20
55016;DHT22;40919;43.236;21.590;2022-07-23T00:30:46;588.80;2099.20
55016;DHT22;40919;43.236;21.590;2022-07-23T00:33:12;564.10;2124.80
55016;DHT22;40919;43.236;21.590;2022-07-23T00:35:39;588.80;2124.80
55016;DHT22;40919;43.236;21.590;2022-07-23T00:38:09;564.10;2124.80
55016;DHT22;40919;43.236;21.590;2022-07-23T01:07:28;564.00;2124.80
55016;DHT22;40919;43.236;21.590;2022-07-23T01:09:54;564.00;2150.40
55016;DHT22;40919;43.236;21.590;2022-07-23T01:12:20;564.00;2124.80
55016;DHT22;40919;43.236;21.590;2022-07-23T01:14:54;564.00;2124.80
55016;DHT22;40919;43.236;21.590;2022-07-23T01:17:20;563.90;2124.80
55016;DHT22;40919;43.236;21.590;2022-07-23T05:58:39;589.60;2124.80
55016;DHT22;40919;43.236;21.590;2022-07-23T06:01:05;589.70;2099.20
55016;DHT22;40919;43.236;21.590;2022-07-23T06:03:31;589.40;2124.80
55016;DHT22;40919;43.236;21.590;2022-07-23T06:05:57;589.50;2124.80
55016;DHT22;40919;43.236;21.590;2022-07-23T06:08:22;589.50;2124.80
55016;DHT22;40919;43.236;21.590;2022-07-23T06:10:48;589.50;2124.80
55016;DHT22;40919;43.236;21.590;2022-07-23T06:15:40;614.50;2099.20
55016;DHT22;40919;43.236;21.590;2022-07-23T06:18:06;614.60;2099.20
55016;DHT22;40919;43.236;21.590;2022-07-23T06:20:32;614.50;2099.20
55016;DHT22;40919;43.236;21.590;2022-07-23T06:22:58;614.70;2099.20
55016;DHT22;40919;43.236;21.590;2022-07-23T06:25:24;614.80;2099.20
55016;DHT22;40919;43.236;21.590;2022-07-23T06:27:49;614.80;2048.00
55016;DHT22;40919;43.236;21.590;2022-07-23T06:30:15;615.00;2022.40
55016;DHT22;40919;43.236;21.590;2022-07-23T06:32:42;615.00;2048.00
55016;DHT22;40919;43.236;21.590;2022-07-23T06:35:08;615.00;1996.80
55016;DHT22;40919;43.236;21.590;2022-07-23T06:37:34;615.10;1996.80
55016;DHT22;40919;43.236;21.590;2022-07-23T06:40:00;615.30;1996.80
55016;DHT22;40919;43.236;21.590;2022-07-23T06:42:26;615.30;1971.20
55016;DHT22;40919;43.236;21.590;2022-07-23T06:44:52;640.00;1971.20
55016;DHT22;40919;43.236;21.590;2022-07-23T06:47:17;640.20;1945.60
55016;DHT22;40919;43.236;21.590;2022-07-23T06:49:43;640.50;1945.60
55016;DHT22;40919;43.236;21.590;2022-07-23T06:52:09;640.70;1920.00
55016;DHT22;40919;43.236;21.590;2022-07-23T06:54:35;665.60;1945.60
55016;DHT22;40919;43.236;21.590;2022-07-23T06:57:01;665.80;1920.00
55016;DHT22;40919;43.236;21.590;2022-07-23T06:59:27;665.90;1920.00
55016;DHT22;40919;43.236;21.590;2022-07-23T07:01:53;665.80;1945.60
55016;DHT22;40919;43.236;21.590;2022-07-23T07:04:18;666.10;1920.00
55016;DHT22;40919;43.236;21.590;2022-07-23T07:09:10;666.50;1868.80
55016;DHT22;40919;43.236;21.590;2022-07-23T07:11:36;666.40;1894.40
55016;DHT22;40919;43.236;21.590;2022-07-23T07:14:02;666.50;1894.40
55016;DHT22;40919;43.236;21.590;2022-07-23T07:16:29;691.50;1894.40
55016;DHT22;40919;43.236;21.590;2022-07-23T09:41:37;896.40;1510.40
55016;DHT22;40919;43.236;21.590;2022-07-23T09:44:08;896.50;1510.40
55016;DHT22;40919;43.236;21.590;2022-07-23T09:46:34;896.40;1484.80
55016;DHT22;40919;43.236;21.590;2022-07-23T09:49:12;896.80;1484.80
55016;DHT22;40919;43.236;21.590;2022-07-23T09:51:49;896.90;1433.60
55016;DHT22;40919;43.236;21.590;2022-07-23T09:54:37;921.60;1459.20
55016;DHT22;40919;43.236;21.590;2022-07-23T09:57:13;896.80;1408.00
55016;DHT22;40919;43.236;21.590;2022-07-23T09:59:42;921.90;1459.20
55016;DHT22;40919;43.236;21.590;2022-07-23T10:02:10;922.10;1459.20
55016;DHT22;40919;43.236;21.590;2022-07-23T10:04:38;922.30;1459.20
55016;DHT22;40919;43.236;21.590;2022-07-23T10:07:06;922.40;1433.60
55016;DHT22;40919;43.236;21.590;2022-07-23T10:09:37;947.30;1433.60
55016;DHT22;40919;43.236;21.590;2022-07-23T10:12:05;947.60;1433.60
55016;DHT22;40919;43.236;21.590;2022-07-23T10:14:38;947.50;1382.40
55016;DHT22;40919;43.236;21.590;2022-07-23T10:17:05;947.80;1408.00
55016;DHT22;40919;43.236;21.590;2022-07-23T10:19:32;948.10;1382.40
55016;DHT22;40919;43.236;21.590;2022-07-23T10:22:19;972.80;1382.40
55016;DHT22;40919;43.236;21.590;2022-07-23T10:33:32;973.30;1356.80
55016;DHT22;40919;43.236;21.590;2022-07-23T10:36:32;973.40;1356.80
55016;DHT22;40919;43.236;21.590;2022-07-23T10:39:11;973.70;1331.20
55016;DHT22;40919;43.236;21.590;2022-07-23T10:41:40;973.70;1331.20
55016;DHT22;40919;43.236;21.590;2022-07-23T10:47:02;973.60;1305.60
55016;DHT22;40919;43.236;21.590;2022-07-23T10:49:47;998.60;1331.20
55016;DHT22;40919;43.236;21.590;2022-07-23T10:52:26;973.20;1305.60
55016;DHT22;40919;43.236;21.590;2022-07-23T10:57:21;973.70;1305.60
55016;DHT22;40919;43.236;21.590;2022-07-23T11:02:33;998.80;1356.80
55016;DHT22;40919;43.236;21.590;2022-07-23T11:07:31;999.10;1331.20
55016;DHT22;40919;43.236;21.590;2022-07-23T11:09:57;999.10;1280.00
55016;DHT22;40919;43.236;21.590;2022-07-23T11:15:11;999.00;1254.40
55016;DHT22;40919;43.236;21.590;2022-07-23T11:27:49;999.20;1254.40
55016;DHT22;40919;43.236;21.590;2022-07-23T11:33:15;1024.40;1280.00
55016;DHT22;40919;43.236;21.590;2022-07-23T11:40:39;1049.70;1254.40
55016;DHT22;40919;43.236;21.590;2022-07-23T11:43:08;1049.80;1228.80
55016;DHT22;40919;43.236;21.590;2022-07-23T11:45:45;1050.00;1228.80
55016;DHT22;40919;43.236;21.590;2022-07-23T11:48:18;1050.00;1228.80
55016;DHT22;40919;43.236;21.590;2022-07-23T11:50:45;1050.10;1228.80
55016;DHT22;40919;43.236;21.590;2022-07-23T11:53:11;1050.10;1228.80
55016;DHT22;40919;43.236;21.590;2022-07-23T11:55:37;1049.90;1203.20
55016;DHT22;40919;43.236;21.590;2022-07-23T11:58:04;1049.80;1203.20
55016;DHT22;40919;43.236;21.590;2022-07-23T12:00:32;1049.90;1177.60
55016;DHT22;40919;43.236;21.590;2022-07-23T12:03:03;1049.90;1177.60
55016;DHT22;40919;43.236;21.590;2022-07-23T12:05:34;1050.00;1203.20
55016;DHT22;40919;43.236;21.590;2022-07-23T12:08:03;1050.20;1203.20
55016;DHT22;40919;43.236;21.590;2022-07-23T12:10:36;1050.40;1203.20
55016;DHT22;40919;43.236;21.590;2022-07-23T12:13:05;1050.50;1203.20
55016;DHT22;40919;43.236;21.590;2022-07-23T12:15:37;1075.20;1177.60
55016;DHT22;40919;43.236;21.590;2022-07-23T12:18:05;1075.20;1203.20
55016;DHT22;40919;43.236;21.590;2022-07-23T12:20:38;1075.30;1203.20
55016;DHT22;40919;43.236;21.590;2022-07-23T12:23:07;1075.30;1203.20
55016;DHT22;40919;43.236;21.590;2022-07-23T12:25:38;1050.50;1177.60
55016;DHT22;40919;43.236;21.590;2022-07-23T12:28:16;1075.20;1228.80
55016;DHT22;40919;43.236;21.590;2022-07-23T12:30:45;1075.30;1152.00
55016;DHT22;40919;43.236;21.590;2022-07-23T12:33:23;1050.20;1152.00
55016;DHT22;40919;43.236;21.590;2022-07-23T12:35:49;1050.10;1152.00
55016;DHT22;40919;43.236;21.590;2022-07-23T12:38:18;1050.10;1177.60
55016;DHT22;40919;43.236;21.590;2022-07-23T12:40:49;1050.20;1152.00
55016;DHT22;40919;43.236;21.590;2022-07-23T12:46:02;1075.20;1152.00
55016;DHT22;40919;43.236;21.590;2022-07-23T12:48:32;1075.30;1152.00
55016;DHT22;40919;43.236;21.590;2022-07-23T12:51:14;1075.60;1177.60
55016;DHT22;40919;43.236;21.590;2022-07-23T12:53:46;1075.60;1152.00
55016;DHT22;40919;43.236;21.590;2022-07-23T12:56:30;1075.70;1100.80
55016;DHT22;40919;43.236;21.590;2022-07-23T12:59:12;1075.40;1075.20
55016;DHT22;40919;43.236;21.590;2022-07-23T13:01:44;1075.40;1075.20
55016;DHT22;40919;43.236;21.590;2022-07-23T13:04:19;1075.30;1100.80
55016;DHT22;40919;43.236;21.590;2022-07-23T13:06:49;1050.50;1075.20
55016;DHT22;40919;43.236;21.590;2022-07-23T13:09:29;1075.50;1075.20
55016;DHT22;40919;43.236;21.590;2022-07-23T13:11:56;1075.60;1075.20
55016;DHT22;40919;43.236;21.590;2022-07-23T13:14:23;1075.70;1049.60
55016;DHT22;40919;43.236;21.590;2022-07-23T13:16:50;1075.70;1049.60
55016;DHT22;40919;43.236;21.590;2022-07-23T13:19:16;1075.40;1049.60
55016;DHT22;40919;43.236;21.590;2022-07-23T13:21:42;1075.60;1075.20
55016;DHT22;40919;43.236;21.590;2022-07-23T13:24:10;1075.80;1075.20
55016;DHT22;40919;43.236;21.590;2022-07-23T13:26:36;1075.90;1075.20
55016;DHT22;40919;43.236;21.590;2022-07-23T13:29:03;1100.80;1075.20
55016;DHT22;40919;43.236;21.590;2022-07-23T13:31:29;1100.80;1075.20
55016;DHT22;40919;43.236;21.590;2022-07-23T13:33:54;1100.80;1075.20
55016;DHT22;40919;43.236;21.590;2022-07-23T13:36:20;1100.90;1075.20
55016;DHT22;40919;43.236;21.590;2022-07-23T13:38:46;1100.90;1075.20
55016;DHT22;40919;43.236;21.590;2022-07-23T13:41:12;1100.90;1075.20
55016;DHT22;40919;43.236;21.590;2022-07-23T13:43:37;1101.00;1075.20
55016;DHT22;40919;43.236;21.590;2022-07-23T13:46:03;1100.90;1049.60
55016;DHT22;40919;43.236;21.590;2022-07-23T13:48:29;1076.10;1049.60
55016;DHT22;40919;43.236;21.590;2022-07-23T13:50:55;1100.80;1075.20
55016;DHT22;40919;43.236;21.590;2022-07-23T13:53:22;1101.00;1075.20
55016;DHT22;40919;43.236;21.590;2022-07-23T13:55:51;1101.70;1075.20
55016;DHT22;40919;43.236;21.590;2022-07-23T13:58:17;1075.90;1024.00
55016;DHT22;40919;43.236;21.590;2022-07-23T14:00:46;1100.90;1126.40
55016;DHT22;40919;43.236;21.590;2022-07-23T14:03:12;1100.90;1075.20
55016;DHT22;40919;43.236;21.590;2022-07-23T14:05:38;1101.10;1049.60
55016;DHT22;40919;43.236;21.590;2022-07-23T14:08:04;1101.10;1049.60
55016;DHT22;40919;43.236;21.590;2022-07-23T14:10:30;1075.90;1024.00
55016;DHT22;40919;43.236;21.590;2022-07-23T14:12:57;1101.00;1049.60
55016;DHT22;40919;43.236;21.590;2022-07-23T14:15:25;1100.80;1049.60
55016;DHT22;40919;43.236;21.590;2022-07-23T14:17:53;1101.00;1049.60
55016;DHT22;40919;43.236;21.590;2022-07-23T14:20:19;1100.90;1049.60
55016;DHT22;40919;43.236;21.590;2022-07-23T14:22:45;1101.20;1075.20
55016;DHT22;40919;43.236;21.590;2022-07-23T14:25:11;1100.90;1049.60
55016;DHT22;40919;43.236;21.590;2022-07-23T14:27:37;1101.00;1049.60
55016;DHT22;40919;43.236;21.590;2022-07-23T14:30:05;1101.10;1049.60
55016;DHT22;40919;43.236;21.590;2022-07-23T14:32:31;1101.50;1075.20
55016;DHT22;40919;43.236;21.590;2022-07-23T14:34:57;1101.30;1049.60
55016;DHT22;40919;43.236;21.590;2022-07-23T14:37:23;1101.20;1024.00
55016;DHT22;40919;43.236;21.590;2022-07-23T14:39:50;1101.10;1049.60
55016;DHT22;40919;43.236;21.590;2022-07-23T14:42:16;1101.20;1049.60
55016;DHT22;40919;43.236;21.590;2022-07-23T14:44:42;1075.30;1075.20
55016;DHT22;40919;43.236;21.590;2022-07-23T14:47:08;1101.30;1100.80
55016;DHT22;40919;43.236;21.590;2022-07-23T14:49:35;1101.50;1049.60
55016;DHT22;40919;43.236;21.590;2022-07-23T14:52:02;1101.60;1049.60
55016;DHT22;40919;43.236;21.590;2022-07-23T14:54:28;1101.50;1049.60
55016;DHT22;40919;43.236;21.590;2022-07-23T14:56:56;1101.30;1024.00
55016;DHT22;40919;43.236;21.590;2022-07-23T14:59:22;1101.00;1049.60
55016;DHT22;40919;43.236;21.590;2022-07-23T15:01:48;1101.00;1024.00
55016;DHT22;40919;43.236;21.590;2022-07-23T15:04:14;1100.80;1024.00
55016;DHT22;40919;43.236;21.590;2022-07-23T15:06:40;1101.10;1049.60
55016;DHT22;40919;43.236;21.590;2022-07-23T15:09:06;1101.30;1024.00
55016;DHT22;40919;43.236;21.590;2022-07-23T15:11:32;1101.50;1075.20
55016;DHT22;40919;43.236;21.590;2022-07-23T15:14:04;1101.50;1024.00
55016;DHT22;40919;43.236;21.590;2022-07-23T15:16:30;1101.50;1024.00
55016;DHT22;40919;43.236;21.590;2022-07-23T15:18:57;1101.60;1049.60
55016;DHT22;40919;43.236;21.590;2022-07-23T15:21:23;1101.20;1049.60
55016;DHT22;40919;43.236;21.590;2022-07-23T15:23:49;1101.10;1075.20
55016;DHT22;40919;43.236;21.590;2022-07-23T15:26:15;1101.00;1126.40
55016;DHT22;40919;43.236;21.590;2022-07-23T15:28:41;1100.80;1049.60
55016;DHT22;40919;43.236;21.590;2022-07-23T15:31:07;1075.90;1100.80
55016;DHT22;40919;43.236;21.590;2022-07-23T15:33:33;1075.90;1049.60
55016;DHT22;40919;43.236;21.590;2022-07-23T15:36:01;1075.80;1075.20
55016;DHT22;40919;43.236;21.590;2022-07-23T15:38:27;1075.70;1100.80
55016;DHT22;40919;43.236;21.590;2022-07-23T15:40:54;1075.70;1075.20
55016;DHT22;40919;43.236;21.590;2022-07-23T15:43:21;1075.50;1049.60
55016;DHT22;40919;43.236;21.590;2022-07-23T15:45:48;1075.40;1126.40
55016;DHT22;40919;43.236;21.590;2022-07-23T15:48:14;1050.40;1100.80
55016;DHT22;40919;43.236;21.590;2022-07-23T15:50:41;1050.40;1126.40
55016;DHT22;40919;43.236;21.590;2022-07-23T15:53:07;1050.10;1075.20
55016;DHT22;40919;43.236;21.590;2022-07-23T15:55:33;1050.10;1126.40
55016;DHT22;40919;43.236;21.590;2022-07-23T15:57:59;1050.00;1126.40
55016;DHT22;40919;43.236;21.590;2022-07-23T16:00:25;1050.00;1100.80
55016;DHT22;40919;43.236;21.590;2022-07-23T16:02:51;1050.00;1152.00
55016;DHT22;40919;43.236;21.590;2022-07-23T16:05:17;1049.70;1126.40
55016;DHT22;40919;43.236;21.590;2022-07-23T16:07:59;1024.70;1126.40
55016;DHT22;40919;43.236;21.590;2022-07-23T16:10:25;1024.50;1152.00
55016;DHT22;40919;43.236;21.590;2022-07-23T16:12:51;1024.30;1126.40
55016;DHT22;40919;43.236;21.590;2022-07-23T16:15:17;1024.20;1126.40
55016;DHT22;40919;43.236;21.590;2022-07-23T16:17:43;999.30;1126.40
55016;DHT22;40919;43.236;21.590;2022-07-23T16:20:09;999.20;1152.00
55016;DHT22;40919;43.236;21.590;2022-07-23T16:22:35;999.00;1177.60
55016;DHT22;40919;43.236;21.590;2022-07-23T16:25:03;998.90;1203.20
55016;DHT22;40919;43.236;21.590;2022-07-23T16:27:32;998.80;1177.60
55016;DHT22;40919;43.236;21.590;2022-07-23T16:29:58;998.50;1152.00
55016;DHT22;40919;43.236;21.590;2022-07-23T16:32:24;998.60;1152.00
55016;DHT22;40919;43.236;21.590;2022-07-23T16:34:50;998.40;1177.60
55016;DHT22;40919;43.236;21.590;2022-07-23T16:37:16;973.70;1203.20
55016;DHT22;40919;43.236;21.590;2022-07-23T16:39:42;973.70;1177.60
55016;DHT22;40919;43.236;21.590;2022-07-23T16:42:08;973.60;1203.20
55016;DHT22;40919;43.236;21.590;2022-07-23T16:44:34;973.50;1177.60
55016;DHT22;40919;43.236;21.590;2022-07-23T16:47:00;973.40;1177.60
55016;DHT22;40919;43.236;21.590;2022-07-23T16:49:26;973.40;1203.20
55016;DHT22;40919;43.236;21.590;2022-07-23T16:51:52;973.20;1228.80
55016;DHT22;40919;43.236;21.590;2022-07-23T16:54:17;973.10;1228.80
55016;DHT22;40919;43.236;21.590;2022-07-23T16:56:43;973.10;1254.40
55016;DHT22;40919;43.236;21.590;2022-07-23T16:59:09;972.90;1280.00
55016;DHT22;40919;43.236;21.590;2022-07-23T17:01:35;972.80;1305.60
55016;DHT22;40919;43.236;21.590;2022-07-23T17:04:01;948.00;1280.00
55016;DHT22;40919;43.236;21.590;2022-07-23T17:06:27;948.00;1228.80
55016;DHT22;40919;43.236;21.590;2022-07-23T17:08:53;947.80;1254.40
55016;DHT22;40919;43.236;21.590;2022-07-23T17:11:18;947.80;1254.40
55016;DHT22;40919;43.236;21.590;2022-07-23T17:13:44;947.70;1305.60
55016;DHT22;40919;43.236;21.590;2022-07-23T17:16:10;947.60;1280.00
55016;DHT22;40919;43.236;21.590;2022-07-23T17:18:36;922.50;1305.60
55016;DHT22;40919;43.236;21.590;2022-07-23T17:21:02;922.30;1331.20
55016;DHT22;40919;43.236;21.590;2022-07-23T17:23:29;922.10;1331.20
55016;DHT22;40919;43.236;21.590;2022-07-23T17:25:54;922.00;1356.80
55016;DHT22;40919;43.236;21.590;2022-07-23T17:28:20;921.70;1356.80
55016;DHT22;40919;43.236;21.590;2022-07-23T17:30:46;921.60;1331.20
55016;DHT22;40919;43.236;21.590;2022-07-23T17:33:12;896.80;1305.60
55016;DHT22;40919;43.236;21.590;2022-07-23T17:35:39;896.80;1331.20
55016;DHT22;40919;43.236;21.590;2022-07-23T17:38:05;896.70;1382.40
55016;DHT22;40919;43.236;21.590;2022-07-23T17:40:32;896.20;1382.40
55016;DHT22;40919;43.236;21.590;2022-07-23T17:42:58;871.20;1382.40
55016;DHT22;40919;43.236;21.590;2022-07-23T17:45:24;896.10;1408.00
55016;DHT22;40919;43.236;21.590;2022-07-23T17:47:50;871.20;1382.40
55016;DHT22;40919;43.236;21.590;2022-07-23T17:50:16;896.20;1382.40
55016;DHT22;40919;43.236;21.590;2022-07-23T17:55:14;896.10;1356.80
55016;DHT22;40919;43.236;21.590;2022-07-23T17:57:40;871.30;1382.40
55016;DHT22;40919;43.236;21.590;2022-07-23T18:00:08;871.20;1356.80
55016;DHT22;40919;43.236;21.590;2022-07-23T18:02:35;871.10;1382.40
55016;DHT22;40919;43.236;21.590;2022-07-23T18:05:01;871.00;1382.40
55016;DHT22;40919;43.236;21.590;2022-07-23T18:07:28;870.90;1382.40
55016;DHT22;40919;43.236;21.590;2022-07-23T18:09:54;870.90;1382.40
55016;DHT22;40919;43.236;21.590;2022-07-23T18:12:19;870.80;1382.40
55016;DHT22;40919;43.236;21.590;2022-07-23T18:14:45;870.60;1382.40
55016;DHT22;40919;43.236;21.590;2022-07-23T18:17:11;870.50;1408.00
55016;DHT22;40919;43.236;21.590;2022-07-23T18:19:37;845.70;1382.40
55016;DHT22;40919;43.236;21.590;2022-07-23T18:22:03;845.70;1408.00
55016;DHT22;40919;43.236;21.590;2022-07-23T18:24:28;845.60;1382.40
55016;DHT22;40919;43.236;21.590;2022-07-23T18:26:54;845.70;1408.00
55016;DHT22;40919;43.236;21.590;2022-07-23T18:29:20;845.50;1433.60
55016;DHT22;40919;43.236;21.590;2022-07-23T18:31:46;845.50;1408.00
55016;DHT22;40919;43.236;21.590;2022-07-23T18:34:13;845.50;1408.00
55016;DHT22;40919;43.236;21.590;2022-07-23T18:36:39;845.60;1408.00
55016;DHT22;40919;43.236;21.590;2022-07-23T18:39:04;845.50;1382.40
55016;DHT22;40919;43.236;21.590;2022-07-23T18:41:32;845.40;1408.00
55016;DHT22;40919;43.236;21.590;2022-07-23T18:43:58;845.30;1433.60
55016;DHT22;40919;43.236;21.590;2022-07-23T18:46:23;845.40;1408.00
55016;DHT22;40919;43.236;21.590;2022-07-23T18:48:49;845.30;1433.60
55016;DHT22;40919;43.236;21.590;2022-07-23T18:51:15;845.00;1408.00
55016;DHT22;40919;43.236;21.590;2022-07-23T18:53:41;845.00;1433.60
55016;DHT22;40919;43.236;21.590;2022-07-23T18:56:07;844.80;1433.60
55016;DHT22;40919;43.236;21.590;2022-07-23T18:58:33;844.90;1433.60
55016;DHT22;40919;43.236;21.590;2022-07-23T19:00:59;820.10;1408.00
55016;DHT22;40919;43.236;21.590;2022-07-23T19:03:25;820.00;1408.00
55016;DHT22;40919;43.236;21.590;2022-07-23T19:05:51;820.00;1433.60
55016;DHT22;40919;43.236;21.590;2022-07-23T19:08:16;819.80;1408.00
55016;DHT22;40919;43.236;21.590;2022-07-23T19:10:42;819.70;1433.60
55016;DHT22;40919;43.236;21.590;2022-07-23T19:13:08;819.60;1433.60
55016;DHT22;40919;43.236;21.590;2022-07-23T19:15:34;819.70;1433.60
55016;DHT22;40919;43.236;21.590;2022-07-23T19:18:00;819.80;1433.60
55016;DHT22;40919;43.236;21.590;2022-07-23T19:20:26;819.60;1459.20
55016;DHT22;40919;43.236;21.590;2022-07-23T19:22:52;819.60;1459.20
55016;DHT22;40919;43.236;21.590;2022-07-23T19:25:17;819.30;1459.20
55016;DHT22;40919;43.236;21.590;2022-07-23T19:27:43;819.50;1459.20
55016;DHT22;40919;43.236;21.590;2022-07-23T19:30:10;819.30;1484.80
55016;DHT22;40919;43.236;21.590;2022-07-23T19:32:37;819.20;1510.40
55016;DHT22;40919;43.236;21.590;2022-07-23T19:35:05;794.40;1536.00
55016;DHT22;40919;43.236;21.590;2022-07-23T19:37:31;794.10;1536.00
55016;DHT22;40919;43.236;21.590;2022-07-23T19:39:57;794.00;1536.00
55016;DHT22;40919;43.236;21.590;2022-07-23T19:42:23;794.00;1536.00
55016;DHT22;40919;43.236;21.590;2022-07-23T19:44:48;794.00;1536.00
55016;DHT22;40919;43.236;21.590;2022-07-23T19:47:14;794.00;1536.00
55016;DHT22;40919;43.236;21.590;2022-07-23T19:49:40;794.00;1561.60
55016;DHT22;40919;43.236;21.590;2022-07-23T19:52:06;793.90;1561.60
55016;DHT22;40919;43.236;21.590;2022-07-23T19:54:34;793.90;1561.60
55016;DHT22;40919;43.236;21.590;2022-07-23T19:56:59;793.80;1561.60
55016;DHT22;40919;43.236;21.590;2022-07-23T19:59:25;768.90;1587.20
55016;DHT22;40919;43.236;21.590;2022-07-23T20:01:51;768.60;1612.80
55016;DHT22;40919;43.236;21.590;2022-07-23T20:04:17;768.60;1612.80
55016;DHT22;40919;43.236;21.590;2022-07-23T20:06:42;768.50;1612.80
55016;DHT22;40919;43.236;21.590;2022-07-23T20:09:08;768.60;1612.80
55016;DHT22;40919;43.236;21.590;2022-07-23T20:11:34;768.60;1612.80
55016;DHT22;40919;43.236;21.590;2022-07-23T20:14:00;768.50;1612.80
55016;DHT22;40919;43.236;21.590;2022-07-23T20:16:27;768.60;1612.80
55016;DHT22;40919;43.236;21.590;2022-07-23T20:18:53;768.40;1612.80
55016;DHT22;40919;43.236;21.590;2022-07-23T20:21:19;768.40;1612.80
55016;DHT22;40919;43.236;21.590;2022-07-23T20:23:45;768.40;1638.40
55016;DHT22;40919;43.236;21.590;2022-07-23T20:26:11;768.10;1638.40
55016;DHT22;40919;43.236;21.590;2022-07-23T20:28:37;768.10;1664.00
55016;DHT22;40919;43.236;21.590;2022-07-23T20:31:03;743.30;1664.00
55016;DHT22;40919;43.236;21.590;2022-07-23T20:33:30;743.30;1689.60
55016;DHT22;40919;43.236;21.590;2022-07-23T20:35:57;743.10;1689.60
55016;DHT22;40919;43.236;21.590;2022-07-23T20:38:23;743.20;1689.60
55016;DHT22;40919;43.236;21.590;2022-07-23T20:40:49;743.00;1689.60
55016;DHT22;40919;43.236;21.590;2022-07-23T20:43:15;742.90;1689.60
55016;DHT22;40919;43.236;21.590;2022-07-23T20:45:42;742.90;1689.60
55016;DHT22;40919;43.236;21.590;2022-07-23T20:48:08;743.00;1715.20
55016;DHT22;40919;43.236;21.590;2022-07-23T20:50:34;743.00;1689.60
55016;DHT22;40919;43.236;21.590;2022-07-23T20:53:05;742.40;1715.20
55016;DHT22;40919;43.236;21.590;2022-07-23T20:55:32;742.70;1715.20
55016;DHT22;40919;43.236;21.590;2022-07-23T20:57:58;742.40;1766.40
55016;DHT22;40919;43.236;21.590;2022-07-23T21:00:24;717.70;1740.80
55016;DHT22;40919;43.236;21.590;2022-07-23T21:02:50;742.50;1766.40
55016;DHT22;40919;43.236;21.590;2022-07-23T21:05:15;742.50;1766.40
55016;DHT22;40919;43.236;21.590;2022-07-23T21:07:41;742.60;1740.80
55016;DHT22;40919;43.236;21.590;2022-07-23T21:10:09;742.60;1740.80
55016;DHT22;40919;43.236;21.590;2022-07-23T21:12:35;742.50;1740.80
55016;DHT22;40919;43.236;21.590;2022-07-23T21:15:02;742.40;1740.80
55016;DHT22;40919;43.236;21.590;2022-07-23T21:17:28;717.70;1740.80
55016;DHT22;40919;43.236;21.590;2022-07-23T21:19:54;717.70;1740.80
55016;DHT22;40919;43.236;21.590;2022-07-23T21:22:19;717.50;1740.80
55016;DHT22;40919;43.236;21.590;2022-07-23T21:24:46;717.40;1766.40
55016;DHT22;40919;43.236;21.590;2022-07-23T21:27:12;717.50;1766.40
55016;DHT22;40919;43.236;21.590;2022-07-23T21:29:40;717.50;1766.40
55016;DHT22;40919;43.236;21.590;2022-07-23T21:32:07;717.60;1740.80
55016;DHT22;40919;43.236;21.590;2022-07-23T21:34:33;717.50;1766.40
55016;DHT22;40919;43.236;21.590;2022-07-23T21:37:00;717.20;1792.00
55016;DHT22;40919;43.236;21.590;2022-07-23T21:39:25;717.20;1792.00
55016;DHT22;40919;43.236;21.590;2022-07-23T21:41:51;717.20;1792.00
55016;DHT22;40919;43.236;21.590;2022-07-23T21:44:17;717.20;1792.00
55016;DHT22;40919;43.236;21.590;2022-07-23T21:46:43;717.20;1792.00
55016;DHT22;40919;43.236;21.590;2022-07-23T21:49:09;717.10;1792.00
55016;DHT22;40919;43.236;21.590;2022-07-23T21:51:38;717.00;1792.00
55016;DHT22;40919;43.236;21.590;2022-07-23T21:54:19;716.80;1817.60
55016;DHT22;40919;43.236;21.590;2022-07-23T21:56:47;716.80;1817.60
55016;DHT22;40919;43.236;21.590;2022-07-23T21:59:15;716.80;1817.60
55016;DHT22;40919;43.236;21.590;2022-07-23T22:01:41;716.80;1817.60
55016;DHT22;40919;43.236;21.590;2022-07-23T22:04:07;716.80;1817.60
55016;DHT22;40919;43.236;21.590;2022-07-23T22:06:33;692.10;1792.00
55016;DHT22;40919;43.236;21.590;2022-07-23T22:08:59;691.80;1817.60
55016;DHT22;40919;43.236;21.590;2022-07-23T22:11:25;691.70;1843.20
55016;DHT22;40919;43.236;21.590;2022-07-23T22:13:56;691.70;1843.20
55016;DHT22;40919;43.236;21.590;2022-07-23T22:16:36;691.80;1843.20
55016;DHT22;40919;43.236;21.590;2022-07-23T22:19:04;691.80;1843.20
55016;DHT22;40919;43.236;21.590;2022-07-23T22:21:29;691.70;1843.20
55016;DHT22;40919;43.236;21.590;2022-07-23T22:23:55;691.50;1868.80
55016;DHT22;40919;43.236;21.590;2022-07-23T22:26:21;691.60;1868.80
55016;DHT22;40919;43.236;21.590;2022-07-23T22:28:52;691.60;1843.20
55016;DHT22;40919;43.236;21.590;2022-07-23T22:31:18;691.60;1843.20
55016;DHT22;40919;43.236;21.590;2022-07-23T22:33:43;691.60;1843.20
55016;DHT22;40919;43.236;21.590;2022-07-23T22:36:09;691.60;1868.80
55016;DHT22;40919;43.236;21.590;2022-07-23T22:38:35;691.60;1868.80
55016;DHT22;40919;43.236;21.590;2022-07-23T22:41:02;691.30;1868.80
55016;DHT22;40919;43.236;21.590;2022-07-23T22:43:28;691.20;1894.40
55016;DHT22;40919;43.236;21.590;2022-07-23T22:45:54;666.20;1920.00
55016;DHT22;40919;43.236;21.590;2022-07-23T22:48:19;666.30;1920.00
55016;DHT22;40919;43.236;21.590;2022-07-23T22:50:45;666.50;1894.40